Time;durP1;ratioP1;P1;durP2;ratioP2;P2;SDS_P1;SDS_P2;PMS_P1;PMS_P2;Temp;Humidity;BMP_temperature;BMP_pressure;BME280_temperature;BME280_humidity;BME280_pressure;Samples;Min_cycle;Max_cycle;Signal;HPM_P1;HPM_P2
2024/02/05 00:01:17;;;;;;;2.22;1.70;;;;;;;12.30;43.10;99885.69;4954690;29;20042;-26
2024/02/05 00:03:44;;;;;;;1.88;1.50;;;;;;;12.22;42.78;99873.38;4952992;29;21303;-27
2024/02/05 00:06:10;;;;;;;2.35;1.70;;;;;;;12.56;42.79;99876.72;4949262;29;20441;-27
2024/02/05 00:08:36;;;;;;;3.72;1.70;;;;;;;12.42;42.75;99867.97;4948193;29;20054;-27
2024/02/05 00:11:01;;;;;;;2.97;1.77;;;;;;;12.72;41.97;99864.75;4944988;29;20114;-27
2024/02/05 00:13:27;;;;;;;3.25;1.80;;;;;;;12.31;42.33;99865.94;4950402;28;20031;-25
2024/02/05 00:15:52;;;;;;;3.05;1.90;;;;;;;12.24;42.64;99857.16;4954401;29;20027;-26
2024/02/05 00:18:18;;;;;;;2.65;1.42;;;;;;;12.46;42.27;99841.66;4954569;29;20038;-27
2024/02/05 00:20:43;;;;;;;3.17;1.70;;;;;;;12.58;42.40;99844.47;4954523;29;20082;-27
2024/02/05 00:23:08;;;;;;;2.47;1.67;;;;;;;12.36;42.35;99839.47;4954007;29;20026;-26
2024/02/05 00:25:36;;;;;;;2.97;1.85;;;;;;;12.61;41.92;99831.50;4954187;29;20473;-26
2024/02/05 00:28:02;;;;;;;2.88;1.70;;;;;;;12.59;42.09;99830.09;4954226;29;20049;-26
2024/02/05 00:30:27;;;;;;;3.25;1.67;;;;;;;12.66;41.93;99825.53;4953834;29;20547;-26
2024/02/05 00:32:53;;;;;;;5.05;1.83;;;;;;;12.35;42.76;99824.47;4953753;29;20047;-26
2024/02/05 00:35:19;;;;;;;3.10;1.80;;;;;;;12.42;42.36;99813.78;4953709;29;20496;-27
2024/02/05 00:37:44;;;;;;;2.20;1.70;;;;;;;12.50;42.54;99805.50;4953719;29;20066;-29
2024/02/05 00:40:10;;;;;;;3.05;1.90;;;;;;;12.37;43.49;99813.59;4953865;29;20549;-27
2024/02/05 00:42:35;;;;;;;3.50;1.92;;;;;;;12.30;42.34;99802.97;4953754;29;20030;-28
2024/02/05 00:45:01;;;;;;;2.75;1.60;;;;;;;12.39;42.18;99798.19;4953597;29;20027;-27
2024/02/05 00:47:27;;;;;;;3.38;1.63;;;;;;;12.51;42.14;99804.47;4953741;29;20031;-27
2024/02/05 00:49:52;;;;;;;3.13;1.85;;;;;;;12.32;42.65;99808.91;4953182;29;20031;-27
2024/02/05 00:52:17;;;;;;;2.35;1.65;;;;;;;12.11;42.81;99799.34;4953424;29;20082;-26
2024/02/05 00:54:43;;;;;;;3.45;1.80;;;;;;;12.19;42.85;99782.28;4953077;29;20356;-26
2024/02/05 00:57:08;;;;;;;3.80;1.80;;;;;;;12.22;42.84;99788.00;4953494;29;20027;-27
2024/02/05 00:59:34;;;;;;;2.47;1.60;;;;;;;12.31;42.60;99776.03;4953403;29;20027;-27
2024/02/05 01:01:59;;;;;;;2.60;1.60;;;;;;;12.25;43.33;99778.75;4952984;29;20019;-27
2024/02/05 01:04:25;;;;;;;3.05;1.90;;;;;;;12.33;43.23;99775.81;4952896;29;20126;-26
2024/02/05 01:06:51;;;;;;;3.85;1.95;;;;;;;12.42;42.69;99771.88;4953037;29;20034;-27
2024/02/05 01:09:17;;;;;;;2.85;1.92;;;;;;;12.11;42.84;99760.16;4952986;29;20031;-26
2024/02/05 01:11:42;;;;;;;3.17;1.80;;;;;;;12.19;43.31;99763.59;4952948;29;20030;-27
2024/02/05 01:14:07;;;;;;;3.65;1.90;;;;;;;11.93;43.96;99752.03;4953080;29;20037;-26
2024/02/05 01:16:33;;;;;;;3.22;2.10;;;;;;;11.89;43.88;99740.97;4952822;29;20700;-26
2024/02/05 01:18:58;;;;;;;2.67;1.80;;;;;;;11.96;44.17;99745.47;4953176;29;20030;-27
2024/02/05 01:21:23;;;;;;;5.22;1.85;;;;;;;11.74;44.93;99725.19;4953121;29;20037;-26
2024/02/05 01:23:49;;;;;;;2.95;2.00;;;;;;;11.52;45.64;99719.34;4952805;29;20538;-26
2024/02/05 01:26:14;;;;;;;4.35;1.70;;;;;;;11.72;45.43;99724.59;4952755;28;20411;-26
2024/02/05 01:28:39;;;;;;;2.85;1.90;;;;;;;11.59;45.87;99721.97;4953144;29;20030;-26
2024/02/05 01:31:08;;;;;;;3.53;1.90;;;;;;;11.45;45.49;99689.22;4952621;29;20055;-26
2024/02/05 01:33:34;;;;;;;2.80;2.03;;;;;;;11.90;45.01;99723.13;4952828;29;20524;-27
2024/02/05 01:35:59;;;;;;;3.28;2.00;;;;;;;11.80;46.10;99720.88;4952657;29;20023;-26
2024/02/05 01:38:25;;;;;;;3.13;2.22;;;;;;;12.25;45.07;99709.38;4952578;29;20357;-26
2024/02/05 01:40:50;;;;;;;2.38;1.67;;;;;;;12.02;46.01;99708.09;4952360;29;20102;-26
2024/02/05 01:43:17;;;;;;;3.05;1.90;;;;;;;12.04;45.32;99687.34;4952724;29;20043;-27
2024/02/05 01:45:43;;;;;;;2.35;1.73;;;;;;;12.10;45.45;99694.47;4952962;29;20110;-28
2024/02/05 01:48:09;;;;;;;3.53;2.00;;;;;;;12.31;45.64;99687.97;4952617;29;20521;-27
2024/02/05 01:50:37;;;;;;;2.90;1.88;;;;;;;12.47;45.21;99678.66;4952640;29;20023;-27
2024/02/05 01:53:04;;;;;;;3.35;2.00;;;;;;;12.56;44.76;99686.38;4952742;29;20098;-27
2024/02/05 01:55:31;;;;;;;4.88;2.20;;;;;;;12.29;45.63;99679.38;4952935;29;20027;-26
2024/02/05 01:57:57;;;;;;;5.45;2.30;;;;;;;12.18;46.23;99672.06;4952927;29;20027;-27
2024/02/05 02:00:24;;;;;;;4.30;2.22;;;;;;;12.19;46.25;99665.72;4952846;29;20502;-27
2024/02/05 02:02:50;;;;;;;3.70;2.10;;;;;;;11.91;46.83;99664.22;4952531;29;20062;-26
2024/02/05 02:05:17;;;;;;;2.78;1.98;;;;;;;11.89;46.98;99660.97;4952678;29;20101;-27
2024/02/05 02:07:42;;;;;;;3.30;2.10;;;;;;;11.80;47.25;99648.88;4952787;29;20032;-27
2024/02/05 02:10:09;;;;;;;3.50;2.00;;;;;;;11.91;46.78;99660.75;4952894;29;20031;-27
2024/02/05 02:12:34;;;;;;;3.58;1.88;;;;;;;11.50;47.48;99654.78;4952553;29;20606;-26
2024/02/05 02:15:00;;;;;;;2.60;1.85;;;;;;;11.80;47.26;99653.41;4952743;29;20078;-27
2024/02/05 02:17:29;;;;;;;3.10;1.98;;;;;;;11.69;47.71;99655.72;4952608;29;20062;-26
2024/02/05 02:19:55;;;;;;;2.75;1.95;;;;;;;11.73;47.55;99643.59;4952746;29;20026;-26
2024/02/05 02:22:23;;;;;;;2.80;2.10;;;;;;;11.61;47.71;99650.63;4946455;29;20032;-26
2024/02/05 02:24:49;;;;;;;2.55;1.80;;;;;;;12.01;46.92;99650.41;4933248;29;20554;-26
2024/02/05 02:27:15;;;;;;;2.55;1.80;;;;;;;11.88;47.07;99648.66;4933375;29;20028;-26
2024/02/05 02:29:40;;;;;;;3.35;2.10;;;;;;;11.89;46.77;99660.97;4933388;29;20031;-26
2024/02/05 02:32:40;;;;;;;3.60;2.20;;;;;;;11.76;48.02;99665.53;4940529;29;20034;-26
2024/02/05 02:35:13;;;;;;;3.08;2.10;;;;;;;11.79;47.96;99662.44;4935111;29;20484;-27
2024/02/05 02:37:47;;;;;;;2.70;2.00;;;;;;;11.67;48.29;99675.59;4953915;28;20031;-27
2024/02/05 02:40:18;;;;;;;3.53;2.10;;;;;;;11.59;47.72;99660.66;4955833;29;20619;-26
2024/02/05 02:42:45;;;;;;;3.47;2.20;;;;;;;11.65;47.95;99670.50;4956027;29;20062;-27
2024/02/05 02:45:12;;;;;;;3.33;2.03;;;;;;;11.83;47.34;99667.13;4956051;29;20110;-26
2024/02/05 02:47:37;;;;;;;3.65;2.30;;;;;;;11.77;47.75;99667.97;4955942;29;20023;-27
2024/02/05 02:50:03;;;;;;;4.30;2.20;;;;;;;11.59;48.08;99682.00;4955281;29;20055;-26
2024/02/05 02:52:29;;;;;;;3.30;2.33;;;;;;;11.70;48.21;99676.00;4955624;29;20027;-27
2024/02/05 02:54:54;;;;;;;4.03;2.00;;;;;;;11.17;49.28;99683.38;4955601;29;20177;-27
2024/02/05 02:57:20;;;;;;;3.10;2.13;;;;;;;11.22;49.63;99672.91;4955602;29;20023;-27
2024/02/05 02:59:46;;;;;;;4.93;2.80;;;;;;;11.29;48.71;99674.53;4955766;29;20031;-27
2024/02/05 03:02:11;;;;;;;5.72;3.08;;;;;;;11.37;48.55;99670.81;4954945;29;20065;-26
2024/02/05 03:04:37;;;;;;;4.55;3.00;;;;;;;11.27;49.05;99665.94;4955053;29;20085;-26
2024/02/05 03:07:02;;;;;;;5.28;3.08;;;;;;;11.15;49.72;99668.41;4955377;29;20031;-27
2024/02/05 03:09:28;;;;;;;9.18;3.40;;;;;;;11.21;49.04;99676.59;4955367;29;20093;-27
2024/02/05 03:11:54;;;;;;;5.70;3.47;;;;;;;11.35;48.76;99673.69;4955213;29;20031;-27
2024/02/05 03:14:23;;;;;;;5.63;3.35;;;;;;;11.30;48.72;99672.69;4955441;29;20027;-26
2024/02/05 03:16:49;;;;;;;7.20;3.40;;;;;;;11.09;48.90;99657.78;4955325;29;20035;-26
2024/02/05 03:19:14;;;;;;;7.45;3.28;;;;;;;11.05;49.13;99660.03;4955239;29;20046;-27
2024/02/05 03:21:40;;;;;;;4.78;2.85;;;;;;;10.95;49.78;99663.13;4954924;29;20348;-27
2024/02/05 03:24:06;;;;;;;4.90;3.13;;;;;;;11.11;49.54;99656.53;4955393;29;20035;-27
2024/02/05 03:26:33;;;;;;;5.30;3.08;;;;;;;10.99;49.08;99650.22;4955306;29;20035;-26
2024/02/05 03:28:58;;;;;;;5.78;3.20;;;;;;;10.79;49.85;99649.44;4955286;29;20031;-27
2024/02/05 03:31:24;;;;;;;5.03;3.28;;;;;;;10.70;49.76;99651.50;4955097;29;20049;-26
2024/02/05 03:33:49;;;;;;;4.88;2.90;;;;;;;10.89;49.75;99660.47;4954606;29;20051;-27
2024/02/05 03:36:15;;;;;;;5.82;3.42;;;;;;;10.43;50.29;99642.72;4954741;29;20027;-27
2024/02/05 03:38:40;;;;;;;6.45;3.33;;;;;;;10.45;50.84;99640.66;4954624;29;20023;-26
2024/02/05 03:41:06;;;;;;;6.90;3.35;;;;;;;10.35;51.45;99635.75;4954705;29;20081;-26
2024/02/05 03:43:32;;;;;;;5.43;3.38;;;;;;;10.56;50.80;99630.22;4954717;29;20038;-27
2024/02/05 03:45:57;;;;;;;6.20;3.42;;;;;;;10.50;50.87;99624.91;4954827;29;20023;-27
2024/02/05 03:48:22;;;;;;;4.88;3.30;;;;;;;10.67;50.46;99614.66;4953499;28;20485;-27
2024/02/05 03:50:49;;;;;;;4.63;3.45;;;;;;;10.69;49.74;99610.75;4954779;29;20054;-27
2024/02/05 03:53:14;;;;;;;6.05;3.50;;;;;;;10.56;50.30;99598.28;4954778;29;20103;-27
2024/02/05 03:55:39;;;;;;;9.52;3.70;;;;;;;10.60;50.22;99609.31;4937147;29;20113;-28
2024/02/05 03:58:06;;;;;;;7.40;4.07;;;;;;;10.60;50.92;99614.66;4954666;29;20038;-27
2024/02/05 04:00:31;;;;;;;7.30;4.03;;;;;;;10.54;51.05;99605.66;4954373;29;20035;-27
2024/02/05 04:02:57;;;;;;;8.70;3.53;;;;;;;10.68;50.42;99614.47;4954889;29;20115;-27
2024/02/05 04:05:25;;;;;;;6.65;3.53;;;;;;;10.60;50.66;99616.50;4954911;29;20505;-25
2024/02/05 04:07:50;;;;;;;4.65;3.10;;;;;;;10.73;49.91;99609.31;4954919;29;20035;-27
2024/02/05 04:10:16;;;;;;;5.95;3.05;;;;;;;10.97;49.89;99623.00;4955030;29;20050;-27
2024/02/05 04:12:41;;;;;;;6.65;3.15;;;;;;;10.96;50.07;99613.34;4954908;29;20486;-26
2024/02/05 04:15:08;;;;;;;4.90;3.10;;;;;;;10.71;50.53;99616.69;4954846;29;20035;-27
2024/02/05 04:17:34;;;;;;;11.65;3.10;;;;;;;10.78;50.09;99624.69;4954819;29;20038;-26
2024/02/05 04:19:59;;;;;;;4.22;3.00;;;;;;;10.94;50.13;99626.88;4954895;29;20023;-27
2024/02/05 04:22:25;;;;;;;4.72;2.75;;;;;;;11.03;50.05;99622.16;4954928;29;20058;-27
2024/02/05 04:24:50;;;;;;;5.93;3.33;;;;;;;10.81;49.89;99629.56;4954528;29;20473;-26
2024/02/05 04:27:15;;;;;;;5.07;3.30;;;;;;;10.45;51.14;99625.53;4954864;29;20020;-26
2024/02/05 04:29:41;;;;;;;4.30;2.60;;;;;;;10.57;51.14;99639.84;4954629;29;20042;-26
2024/02/05 04:32:06;;;;;;;3.33;2.47;;;;;;;10.81;50.03;99640.22;4954754;29;20481;-26
2024/02/05 04:34:32;;;;;;;3.92;2.70;;;;;;;10.82;50.53;99635.72;4954219;29;20484;-26
2024/02/05 04:36:57;;;;;;;5.22;2.88;;;;;;;11.12;49.98;99642.22;4954592;29;20070;-27
2024/02/05 04:39:23;;;;;;;7.55;3.00;;;;;;;10.89;50.13;99642.69;4954266;29;20074;-26
2024/02/05 04:41:49;;;;;;;6.28;3.00;;;;;;;10.80;49.97;99640.44;4954202;29;20179;-26
2024/02/05 04:44:17;;;;;;;6.75;3.08;;;;;;;10.53;50.01;99646.59;4954165;29;20536;-27
2024/02/05 04:46:43;;;;;;;3.55;2.40;;;;;;;10.55;50.22;99633.09;4954001;29;20097;-26
2024/02/05 04:49:09;;;;;;;4.43;2.55;;;;;;;10.75;49.31;99639.19;4954151;29;20050;-26
2024/02/05 04:51:35;;;;;;;4.25;2.60;;;;;;;10.78;49.02;99648.63;4954102;29;20103;-27
2024/02/05 04:54:00;;;;;;;6.07;2.60;;;;;;;10.71;49.89;99655.78;4954173;29;20110;-26
2024/02/05 04:56:26;;;;;;;5.57;2.58;;;;;;;10.68;49.70;99648.22;4953852;29;20459;-26
2024/02/05 04:58:52;;;;;;;3.85;2.28;;;;;;;10.72;51.00;99658.25;4953903;29;20038;-27
2024/02/05 05:01:17;;;;;;;6.75;2.55;;;;;;;10.75;49.91;99655.16;4953264;28;20057;-27
2024/02/05 05:03:43;;;;;;;4.38;2.50;;;;;;;10.90;49.25;99662.13;4953435;29;20409;-27
2024/02/05 05:06:08;;;;;;;4.88;2.67;;;;;;;10.79;48.98;99652.91;4954303;29;20159;-27
2024/02/05 05:08:33;;;;;;;3.42;2.10;;;;;;;10.81;48.97;99668.69;4945440;29;20030;-27
2024/02/05 05:10:59;;;;;;;4.00;2.60;;;;;;;10.72;49.18;99666.25;4943154;29;20031;-27
2024/02/05 05:13:24;;;;;;;4.85;2.65;;;;;;;10.86;48.80;99666.22;4945368;29;20523;-28
2024/02/05 05:15:50;;;;;;;4.13;2.70;;;;;;;10.72;49.53;99660.09;4937726;29;20028;-27
2024/02/05 05:18:15;;;;;;;4.57;2.80;;;;;;;10.42;50.59;99663.19;4944848;29;20034;-38
2024/02/05 05:20:42;;;;;;;3.45;2.28;;;;;;;10.41;50.40;99663.38;4954411;29;20058;-39
2024/02/05 05:23:07;;;;;;;4.97;3.10;;;;;;;10.42;49.49;99662.38;4953980;29;20042;-40
2024/02/05 05:25:33;;;;;;;8.65;2.72;;;;;;;10.25;50.43;99665.38;4953953;29;20030;-41
2024/02/05 05:27:58;;;;;;;5.38;2.65;;;;;;;10.29;50.26;99671.94;4945740;29;20032;-40
2024/02/05 05:30:23;;;;;;;4.68;2.67;;;;;;;10.43;49.32;99670.13;4934856;29;20540;-39
2024/02/05 05:32:49;;;;;;;5.68;2.55;;;;;;;10.43;49.35;99671.97;4934455;29;20052;-41
2024/02/05 05:35:14;;;;;;;7.43;2.83;;;;;;;10.51;48.43;99655.81;4934838;29;20438;-36
2024/02/05 05:37:42;;;;;;;7.00;3.53;;;;;;;10.72;48.19;99660.91;4934620;29;20043;-41
2024/02/05 05:40:12;;;;;;;5.03;3.03;;;;;;;10.85;48.16;99662.75;4941759;29;20057;-37
2024/02/05 05:42:38;;;;;;;8.27;3.20;;;;;;;10.80;48.15;99649.25;4953367;29;20027;-39
2024/02/05 05:45:04;;;;;;;5.10;2.92;;;;;;;10.59;48.24;99650.28;4953759;29;20095;-40
2024/02/05 05:47:29;;;;;;;7.57;3.75;;;;;;;10.74;47.62;99658.06;4953473;29;20054;-38
2024/02/05 05:49:55;;;;;;;7.38;3.20;;;;;;;10.52;48.59;99644.94;4953364;29;20033;-40
2024/02/05 05:52:21;;;;;;;6.65;3.50;;;;;;;10.64;48.65;99650.50;4953876;29;20105;-41
2024/02/05 05:54:47;;;;;;;3.85;2.75;;;;;;;10.79;48.22;99642.25;4953818;29;20480;-39
2024/02/05 05:57:12;;;;;;;6.80;3.10;;;;;;;10.99;47.77;99646.75;4952865;29;20038;-38
2024/02/05 05:59:44;;;;;;;8.20;3.00;;;;;;;11.04;47.72;99631.78;4935666;29;20039;-39
2024/02/05 06:02:09;;;;;;;8.10;3.20;;;;;;;10.90;47.18;99632.84;4952919;29;20122;-39
2024/02/05 06:04:36;;;;;;;7.88;3.47;;;;;;;10.93;46.83;99640.41;4953728;29;20110;-27
2024/02/05 06:07:06;;;;;;;9.23;3.00;;;;;;;11.11;45.31;99634.41;4953486;29;20039;-27
2024/02/05 06:09:32;;;;;;;4.82;2.92;;;;;;;11.42;43.99;99644.34;4953664;29;20070;-27
2024/02/05 06:11:57;;;;;;;4.75;2.63;;;;;;;12.21;42.94;99641.50;4954077;28;20035;-27
2024/02/05 06:14:22;;;;;;;5.55;2.65;;;;;;;13.11;42.56;99649.88;4955491;29;20029;-28
2024/02/05 06:16:48;;;;;;;9.15;3.35;;;;;;;13.44;41.65;99647.91;4954091;29;20499;-27
2024/02/05 06:19:13;;;;;;;5.38;3.00;;;;;;;13.83;39.92;99649.25;4956942;29;20031;-29
2024/02/05 06:21:39;;;;;;;6.30;3.28;;;;;;;14.20;38.36;99643.81;4956382;29;20031;-30
2024/02/05 06:24:05;;;;;;;7.40;3.13;;;;;;;14.23;38.67;99664.72;4956880;29;20100;-28
2024/02/05 06:26:30;;;;;;;10.82;3.47;;;;;;;14.55;37.27;99653.72;4956587;29;20506;-27
2024/02/05 06:28:56;;;;;;;6.35;3.03;;;;;;;13.71;38.44;99653.75;4956695;29;20038;-27
2024/02/05 06:31:21;;;;;;;8.02;3.38;;;;;;;13.81;38.26;99650.53;4956520;29;20713;-27
2024/02/05 06:33:47;;;;;;;5.18;2.90;;;;;;;13.56;38.66;99654.16;4956586;29;20097;-28
2024/02/05 06:36:13;;;;;;;9.13;3.40;;;;;;;13.89;38.25;99650.22;4956645;29;20359;-27
2024/02/05 06:38:40;;;;;;;9.82;4.05;;;;;;;13.73;38.39;99653.50;4955969;29;20059;-27
2024/02/05 06:41:06;;;;;;;8.88;4.00;;;;;;;13.39;38.44;99653.94;4956287;29;20031;-28
2024/02/05 06:43:33;;;;;;;9.80;3.53;;;;;;;13.67;38.73;99674.78;4955909;29;20027;-29
2024/02/05 06:45:59;;;;;;;5.57;3.05;;;;;;;13.54;38.53;99666.94;4956365;29;20031;-28
2024/02/05 06:48:24;;;;;;;7.47;3.28;;;;;;;13.90;38.39;99654.53;4956190;29;20407;-27
2024/02/05 06:50:49;;;;;;;9.40;3.80;;;;;;;13.98;37.26;99651.53;4956232;29;20522;-28
2024/02/05 06:53:15;;;;;;;11.05;3.60;;;;;;;14.23;37.51;99663.94;4956203;29;20205;-28
2024/02/05 06:55:41;;;;;;;10.30;3.80;;;;;;;14.02;37.13;99674.09;4956304;29;20024;-27
2024/02/05 06:58:08;;;;;;;5.82;3.00;;;;;;;14.40;36.25;99664.88;4955966;29;20031;-28
2024/02/05 07:00:33;;;;;;;6.55;3.05;;;;;;;13.94;37.04;99658.38;4955957;29;20514;-29
2024/02/05 07:02:59;;;;;;;8.40;3.17;;;;;;;14.16;37.05;99661.34;4956105;29;20023;-28
2024/02/05 07:05:24;;;;;;;6.38;3.15;;;;;;;14.08;37.06;99661.66;4956166;29;20086;-27
2024/02/05 07:07:50;;;;;;;4.57;2.60;;;;;;;14.15;37.21;99664.25;4955792;29;20034;-29
2024/02/05 07:10:16;;;;;;;6.60;2.72;;;;;;;14.03;37.31;99659.69;4956263;29;20023;-28
2024/02/05 07:12:41;;;;;;;5.28;3.00;;;;;;;14.24;36.98;99661.03;4955893;29;20551;-28
2024/02/05 07:15:07;;;;;;;7.30;2.80;;;;;;;14.66;36.57;99658.31;4956022;29;20463;-27
2024/02/05 07:17:34;;;;;;;5.05;2.80;;;;;;;14.44;36.89;99655.34;4956266;29;20037;-27
2024/02/05 07:20:01;;;;;;;5.80;3.22;;;;;;;15.35;35.85;99663.03;4955783;29;20037;-27
2024/02/05 07:22:30;;;;;;;7.15;2.83;;;;;;;16.08;34.40;99666.06;4955513;28;20024;-28
2024/02/05 07:24:56;;;;;;;5.38;2.80;;;;;;;16.73;34.39;99663.88;4956030;29;20030;-28
2024/02/05 07:27:23;;;;;;;9.85;3.65;;;;;;;16.97;33.31;99661.84;4955311;29;20031;-29
2024/02/05 07:29:48;;;;;;;7.78;2.70;;;;;;;17.34;32.66;99661.25;4955259;29;20031;-28
2024/02/05 07:32:14;;;;;;;7.13;2.88;;;;;;;17.72;32.26;99664.94;4955616;29;20086;-28
2024/02/05 07:34:40;;;;;;;6.70;3.38;;;;;;;18.43;31.24;99670.22;4955193;29;20047;-28
2024/02/05 07:37:05;;;;;;;5.90;2.83;;;;;;;18.19;31.45;99668.94;4955093;29;20019;-28
2024/02/05 07:39:30;;;;;;;8.55;3.22;;;;;;;18.94;30.77;99664.41;4954894;29;20027;-28
2024/02/05 07:41:56;;;;;;;6.18;2.72;;;;;;;19.21;30.21;99666.16;4955099;29;20039;-28
2024/02/05 07:44:21;;;;;;;5.28;2.53;;;;;;;18.73;30.04;99691.22;4955253;29;20389;-27
2024/02/05 07:46:46;;;;;;;3.97;2.78;;;;;;;18.72;30.37;99686.88;4955163;29;20158;-29
2024/02/05 07:49:12;;;;;;;6.25;2.60;;;;;;;19.43;29.93;99684.88;4954925;29;20034;-28
2024/02/05 07:51:45;;;;;;;5.55;2.92;;;;;;;19.69;29.24;99685.81;4955076;29;20027;-27
2024/02/05 07:54:11;;;;;;;5.63;2.50;;;;;;;19.00;29.73;99671.47;4955055;29;20023;-28
2024/02/05 07:56:36;;;;;;;4.45;2.63;;;;;;;18.67;30.49;99681.44;4937946;29;20031;-28
2024/02/05 07:59:03;;;;;;;4.68;2.35;;;;;;;19.22;29.84;99673.19;4951199;29;20023;-29
2024/02/05 08:01:31;;;;;;;6.38;2.40;;;;;;;19.13;29.70;99678.25;4951906;29;20053;-27
2024/02/05 08:03:56;;;;;;;4.22;2.45;;;;;;;19.24;29.70;99677.25;4949197;29;20023;-27
2024/02/05 08:06:23;;;;;;;5.10;2.50;;;;;;;19.80;28.84;99676.69;4952973;29;20030;-27
2024/02/05 08:08:49;;;;;;;4.32;2.25;;;;;;;19.43;28.96;99676.78;4949293;29;20036;-27
2024/02/05 08:11:16;;;;;;;3.65;2.30;;;;;;;19.92;28.47;99684.53;4943845;29;20438;-27
2024/02/05 08:13:41;;;;;;;5.57;2.88;;;;;;;19.65;28.61;99685.53;4940903;29;20026;-27
2024/02/05 08:16:07;;;;;;;4.35;2.20;;;;;;;19.32;29.38;99690.25;4947757;29;20034;-27
2024/02/05 08:18:32;;;;;;;5.55;2.30;;;;;;;19.89;28.57;99696.66;4950713;29;20028;-25
2024/02/05 08:20:57;;;;;;;4.03;2.30;;;;;;;20.14;28.29;99692.41;4945424;29;20438;-28
2024/02/05 08:23:23;;;;;;;7.07;2.22;;;;;;;20.35;27.84;99689.72;4942980;29;20027;-27
2024/02/05 08:25:48;;;;;;;3.80;2.22;;;;;;;20.14;27.79;99681.59;4946124;29;20094;-28
2024/02/05 08:28:13;;;;;;;4.25;2.30;;;;;;;20.69;27.13;99687.31;4947593;29;20456;-28
2024/02/05 08:30:39;;;;;;;4.22;2.42;;;;;;;20.55;27.28;99687.03;4946208;29;20463;-29
2024/02/05 08:33:04;;;;;;;5.35;2.00;;;;;;;21.18;26.34;99677.78;4947535;29;20420;-28
2024/02/05 08:35:30;;;;;;;5.15;2.42;;;;;;;20.78;26.80;99690.31;4947851;28;20098;-27
2024/02/05 08:37:55;;;;;;;4.47;2.47;;;;;;;20.64;26.67;99690.84;4948535;29;20078;-28
2024/02/05 08:40:20;;;;;;;3.70;2.50;;;;;;;20.21;27.84;99695.66;4951277;29;20404;-27
2024/02/05 08:42:46;;;;;;;4.65;2.40;;;;;;;20.11;28.17;99674.06;4954524;29;20405;-27
2024/02/05 08:45:11;;;;;;;3.80;2.60;;;;;;;20.46;27.78;99675.94;4954613;29;20055;-28
2024/02/05 08:47:37;;;;;;;3.13;2.20;;;;;;;20.54;27.13;99684.59;4954125;29;20146;-27
2024/02/05 08:50:02;;;;;;;4.57;2.60;;;;;;;21.34;26.53;99682.03;4954654;29;20103;-27
2024/02/05 08:52:27;;;;;;;5.90;2.50;;;;;;;21.95;25.86;99686.41;4954233;29;20089;-28
2024/02/05 08:54:53;;;;;;;8.95;2.78;;;;;;;22.37;25.25;99673.38;4953807;29;20027;-27
2024/02/05 08:57:18;;;;;;;5.30;2.28;;;;;;;22.19;25.19;99680.28;4953820;29;20039;-27
2024/02/05 08:59:44;;;;;;;4.07;2.65;;;;;;;22.10;25.51;99671.13;4953469;29;20074;-30
2024/02/05 09:02:10;;;;;;;5.13;2.63;;;;;;;21.62;25.76;99680.59;4953086;29;20047;-30
2024/02/05 09:04:36;;;;;;;4.05;2.70;;;;;;;21.63;25.56;99657.88;4953568;29;20019;-27
2024/02/05 09:07:01;;;;;;;6.40;3.30;;;;;;;21.06;26.04;99675.38;4953361;29;20480;-27
2024/02/05 09:09:27;;;;;;;7.00;3.40;;;;;;;21.48;25.83;99685.81;4953273;29;20023;-28
2024/02/05 09:11:52;;;;;;;5.55;3.70;;;;;;;22.02;25.90;99676.03;4953514;29;20027;-29
2024/02/05 09:14:18;;;;;;;10.68;3.83;;;;;;;21.86;25.63;99672.63;4953804;29;20461;-28
2024/02/05 09:16:43;;;;;;;12.68;3.72;;;;;;;21.22;25.94;99674.22;4953574;29;20034;-28
2024/02/05 09:19:08;;;;;;;5.32;3.20;;;;;;;20.99;26.41;99680.25;4953701;29;20031;-27
2024/02/05 09:21:34;;;;;;;8.77;5.28;;;;;;;21.27;25.95;99671.53;4953473;29;20054;-27
2024/02/05 09:23:59;;;;;;;6.50;3.05;;;;;;;21.25;25.89;99664.78;4953660;29;20074;-27
2024/02/05 09:26:24;;;;;;;6.35;3.60;;;;;;;21.46;25.52;99666.34;4954002;29;20042;-28
2024/02/05 09:28:50;;;;;;;6.68;3.58;;;;;;;21.40;25.68;99670.13;4953820;29;20418;-28
2024/02/05 09:31:15;;;;;;;7.05;3.30;;;;;;;21.59;25.84;99669.50;4953641;29;20031;-27
2024/02/05 09:33:41;;;;;;;5.68;3.28;;;;;;;21.85;25.50;99665.56;4953177;29;20059;-27
2024/02/05 09:36:06;;;;;;;4.50;2.88;;;;;;;21.95;25.30;99661.19;4953181;29;20031;-29
2024/02/05 09:38:32;;;;;;;4.47;2.80;;;;;;;21.58;25.48;99665.19;4953002;29;20483;-29
2024/02/05 09:41:04;;;;;;;11.38;3.10;;;;;;;21.67;25.57;99658.13;4953243;29;20396;-28
2024/02/05 09:43:31;;;;;;;10.75;3.03;;;;;;;21.85;25.28;99659.34;4953295;29;20063;-27
2024/02/05 09:46:11;;;;;;;6.82;3.10;;;;;;;21.28;25.96;99646.09;4953335;29;20170;-28
2024/02/05 09:48:38;;;;;;;4.85;2.75;;;;;;;21.26;25.72;99663.66;4953151;29;20098;-28
2024/02/05 09:51:04;;;;;;;6.05;3.05;;;;;;;21.59;25.65;99650.56;4934583;29;20151;-28
2024/02/05 09:53:32;;;;;;;7.35;3.00;;;;;;;22.28;25.13;99646.09;4933760;29;20107;-29
2024/02/05 09:55:58;;;;;;;7.35;3.25;;;;;;;22.24;24.92;99639.59;4933860;29;20094;-27
2024/02/05 09:58:24;;;;;;;5.88;3.08;;;;;;;22.03;25.34;99639.75;4933578;29;20074;-26
2024/02/05 10:00:50;;;;;;;5.32;2.92;;;;;;;21.90;25.18;99639.56;4933804;29;20068;-27
2024/02/05 10:03:17;;;;;;;6.75;3.15;;;;;;;21.83;25.22;99640.69;4933392;29;20473;-27
2024/02/05 10:05:44;;;;;;;8.65;2.90;;;;;;;22.05;25.20;99639.47;4933694;29;20031;-27
2024/02/05 10:08:10;;;;;;;4.20;2.80;;;;;;;22.07;25.18;99640.00;4933625;29;20031;-27
2024/02/05 10:10:39;;;;;;;6.55;2.80;;;;;;;22.27;24.97;99628.19;4933589;29;20036;-26
2024/02/05 10:13:05;;;;;;;7.65;3.30;;;;;;;22.15;25.23;99633.16;4933905;29;20039;-27
2024/02/05 10:15:31;;;;;;;7.57;3.13;;;;;;;22.17;25.01;99618.22;4933638;29;20031;-28
2024/02/05 10:17:57;;;;;;;8.98;3.00;;;;;;;22.12;24.75;99607.41;4933920;29;20023;-28
2024/02/05 10:20:34;;;;;;;4.43;3.00;;;;;;;22.10;24.65;99596.06;4933823;29;20027;-28
2024/02/05 10:23:00;;;;;;;8.70;3.10;;;;;;;22.01;24.60;99595.88;4933818;29;20472;-27
2024/02/05 10:25:27;;;;;;;4.45;2.78;;;;;;;21.71;25.05;99577.94;4933629;29;20106;-27
2024/02/05 10:28:03;;;;;;;7.32;2.90;;;;;;;21.83;24.98;99574.88;4933908;29;20511;-27
2024/02/05 10:30:30;;;;;;;6.63;2.95;;;;;;;21.99;25.06;99567.44;4933499;29;20034;-28
2024/02/05 10:33:00;;;;;;;5.68;3.00;;;;;;;22.01;25.17;99562.56;4933819;29;20440;-32
2024/02/05 10:35:26;;;;;;;5.55;3.00;;;;;;;22.02;25.04;99561.44;4933929;29;20034;-27
2024/02/05 10:37:52;;;;;;;4.63;2.80;;;;;;;22.18;25.04;99562.94;4933691;29;20023;-27
2024/02/05 10:40:17;;;;;;;7.18;3.10;;;;;;;22.17;25.02;99560.53;4933715;29;20024;-28
2024/02/05 10:42:43;;;;;;;6.97;3.20;;;;;;;22.08;25.11;99549.47;4933666;29;20027;-27
2024/02/05 10:45:10;;;;;;;5.45;3.10;;;;;;;22.71;24.67;99543.19;4933363;29;20325;-26
2024/02/05 10:47:36;;;;;;;6.97;3.58;;;;;;;23.28;24.33;99546.03;4933476;29;20023;-27
2024/02/05 10:50:03;;;;;;;5.80;3.28;;;;;;;22.62;24.97;99543.03;4941806;29;20502;-26
2024/02/05 10:52:29;;;;;;;7.00;3.13;;;;;;;22.89;24.48;99532.69;4952424;29;20019;-27
2024/02/05 10:54:58;;;;;;;7.47;3.20;;;;;;;23.47;24.34;99528.94;4952281;29;20078;-29
2024/02/05 10:57:26;;;;;;;7.10;3.10;;;;;;;23.81;23.74;99531.41;4952421;28;20399;-30
2024/02/05 10:59:52;;;;;;;4.53;3.00;;;;;;;22.68;24.62;99534.84;4954482;29;20035;-28
2024/02/05 11:02:33;;;;;;;9.48;2.90;;;;;;;21.77;25.48;99528.06;4953938;29;20480;-27
2024/02/05 11:05:02;;;;;;;9.10;3.20;;;;;;;21.31;26.02;99535.66;4949690;29;20082;-28
2024/02/05 11:07:34;;;;;;;5.75;2.55;;;;;;;21.00;26.18;99533.94;4950513;29;20030;-28
2024/02/05 11:10:04;;;;;;;7.30;2.50;;;;;;;21.92;25.21;99534.47;4950245;29;20103;-27
2024/02/05 11:12:33;;;;;;;4.63;2.10;;;;;;;21.58;25.09;99514.41;4947254;29;20397;-28
2024/02/05 11:15:09;;;;;;;6.78;2.10;;;;;;;21.32;25.77;99527.25;4955369;29;20030;-28
2024/02/05 11:17:38;;;;;;;5.72;2.28;;;;;;;21.34;25.52;99519.66;4956130;29;20035;-27
2024/02/05 11:20:08;;;;;;;4.13;2.20;;;;;;;21.71;25.42;99529.19;4948935;29;20045;-28
2024/02/05 11:22:35;;;;;;;4.05;2.10;;;;;;;21.26;25.72;99533.78;4946645;29;20027;-28
2024/02/05 11:25:04;;;;;;;8.52;2.30;;;;;;;21.11;25.84;99534.66;4950242;29;20019;-27
2024/02/05 11:27:30;;;;;;;6.15;2.20;;;;;;;21.79;25.09;99520.47;4950301;29;20023;-28
2024/02/05 11:29:55;;;;;;;3.80;2.00;;;;;;;21.57;25.43;99525.50;4949312;29;20031;-28